Etusivu
METAR-TAF:

METAR-TAF

Lentoasemat :

Matam, Senegal

Leveyspiiri: 15-39N, Pituuspiiri: 013-15W, korkeus merenpinnasta: 15 m

Tämänhetkinen sää

Tämä raportti tehtiin 3 tuntia ja 8 minuuttia sitten, kello 12.00 UTC
Tuuli 10 kn idästä
Lämpötila 36°C
Kosteus 11%
Ilmanpaine 1013 hPa
Näkyvyys: 4000 m
laajalle levinnyttä pölyä

METAR: GOSM 241200Z 10010KT 4000 DU NSC 36/01 Q1013

Aika: 15:08 (15:08 UTC)


TAF: puuttuu

Säähavainnot ja -ennusteet yli 4000 lentoasemalta (METAR- ja TAF-raportit).

Käytössä olevat sääasemat on merkitty karttaan keltaisilla ja punaisilla pisteillä.

Aseta hiiri pisteen päälle nähdäksesi sääaseman nimen.

Klikkaa sitten nähdäksesi säähavainnot ja -ennusteet.

Kartan vaihtaminen: klikkaa mustalla rastilla varustettuja vihreitä pisteitä, niin voit zoomata sisään; viivalla varustettua vihreää pistettä, niin voit zoomata ulos tai vihreitä nuolia, niin pääset viereisille kartoille.


METAR-TAF: